createdAt,value
2019-03-20T00:01:43.465Z,102401.34
2019-03-20T00:04:06.490Z,102418.72
2019-03-20T00:06:37.802Z,102418.52
2019-03-20T00:09:09.395Z,102420.72
2019-03-20T00:11:40.533Z,102415.43
2019-03-20T00:14:11.661Z,102398.61
2019-03-20T00:16:43.082Z,102398.61
2019-03-20T00:19:13.899Z,102416.52
2019-03-20T00:21:45.167Z,102425.70
2019-03-20T00:24:25.560Z,102424.77
2019-03-20T00:26:57.175Z,102408.34
2019-03-20T00:29:28.474Z,102430.83
2019-03-20T00:32:01.329Z,102431.53
2019-03-20T00:34:33.080Z,102430.27
2019-03-20T00:37:04.208Z,102427.72
2019-03-20T00:39:35.504Z,102408.54
2019-03-20T00:42:06.964Z,102426.82
2019-03-20T00:44:37.977Z,102433.75
2019-03-20T00:47:09.262Z,102434.11
2019-03-20T00:49:40.307Z,102433.96
2019-03-20T00:52:11.396Z,102432.11
2019-03-20T00:54:42.815Z,102432.11
2019-03-20T00:57:14.148Z,102432.48
2019-03-20T00:59:45.679Z,102426.06
2019-03-20T01:02:16.894Z,102428.45
2019-03-20T01:04:48.027Z,102427.92
2019-03-20T01:07:19.816Z,102411.27
2019-03-20T01:09:51.165Z,102425.88
2019-03-20T01:12:22.360Z,102410.33
2019-03-20T01:14:53.754Z,102440.86
2019-03-20T01:17:24.740Z,102433.94
2019-03-20T01:19:55.813Z,102436.16
2019-03-20T01:22:26.923Z,102434.52
2019-03-20T01:24:58.415Z,102435.23
2019-03-20T01:27:30.085Z,102429.75
2019-03-20T01:30:01.565Z,102397.03
2019-03-20T01:32:32.320Z,102440.94
2019-03-20T01:35:03.647Z,102440.94
2019-03-20T01:37:35.048Z,102427.03
2019-03-20T01:40:07.983Z,102437.45
2019-03-20T01:42:39.133Z,102436.34
2019-03-20T01:45:11.337Z,102440.94
2019-03-20T01:47:42.267Z,102443.30
2019-03-20T01:50:13.276Z,102438.72
2019-03-20T01:52:44.417Z,102446.60
2019-03-20T01:55:15.391Z,102460.13
2019-03-20T01:57:46.779Z,102460.13
2019-03-20T02:00:18.155Z,102463.80
2019-03-20T02:02:49.576Z,102460.86
2019-03-20T02:05:20.424Z,102467.43
2019-03-20T02:07:51.990Z,102470.73
2019-03-20T02:10:23.140Z,102470.73
2019-03-20T02:12:54.201Z,102477.50
2019-03-20T02:15:25.449Z,102475.11
2019-03-20T02:17:56.591Z,102481.14
2019-03-20T02:20:27.854Z,102484.44
2019-03-20T02:22:59.068Z,102484.61
2019-03-20T02:25:32.376Z,102481.13
2019-03-20T02:28:04.061Z,102481.13
2019-03-20T02:30:35.270Z,102474.73
2019-03-20T02:33:06.818Z,102456.28
2019-03-20T02:35:50.586Z,102456.28
2019-03-20T02:38:10.941Z,102480.06
2019-03-20T02:40:41.789Z,102477.30
2019-03-20T02:43:13.037Z,102471.27
2019-03-20T02:45:44.254Z,102458.62
2019-03-20T02:48:15.637Z,102475.80
2019-03-20T02:50:47.042Z,102478.35
2019-03-20T02:53:18.216Z,102483.67
2019-03-20T02:55:49.321Z,102483.52
2019-03-20T02:58:20.274Z,102483.52
2019-03-20T03:00:51.293Z,102484.22
2019-03-20T03:03:22.050Z,102484.22
2019-03-20T03:06:05.921Z,102487.89
2019-03-20T03:08:25.885Z,102492.64
2019-03-20T03:10:57.134Z,102495.20
2019-03-20T03:13:27.967Z,102500.30
2019-03-20T03:15:59.065Z,102499.55
2019-03-20T03:18:30.098Z,102498.42
2019-03-20T03:21:01.345Z,102498.42
2019-03-20T03:23:32.488Z,102497.34
2019-03-20T03:26:03.634Z,102499.32
2019-03-20T03:28:34.833Z,102503.15
2019-03-20T03:31:06.905Z,102498.19
2019-03-20T03:33:38.060Z,102498.19
2019-03-20T03:36:20.614Z,102502.95
2019-03-20T03:38:42.117Z,102502.91
2019-03-20T03:41:13.167Z,102503.48
2019-03-20T03:43:44.170Z,102504.58
2019-03-20T03:46:15.002Z,102513.37
2019-03-20T03:48:45.879Z,102516.67
2019-03-20T03:51:16.968Z,102523.98
2019-03-20T03:53:49.136Z,102524.00
2019-03-20T03:56:20.297Z,102523.09
2019-03-20T03:58:51.659Z,102526.17
2019-03-20T04:01:23.156Z,102524.89
2019-03-20T04:03:54.623Z,102521.42
2019-03-20T04:06:35.429Z,102528.34
2019-03-20T04:08:58.859Z,102524.33
2019-03-20T04:11:30.365Z,102524.64
2019-03-20T04:14:01.312Z,102525.00
2019-03-20T04:16:32.306Z,102528.27
2019-03-20T04:19:03.321Z,102529.14
2019-03-20T04:21:34.947Z,102534.23
2019-03-20T04:24:07.175Z,102544.08
2019-03-20T04:26:38.298Z,102549.58
2019-03-20T04:29:09.510Z,102548.45
2019-03-20T04:31:40.716Z,102561.08
2019-03-20T04:34:11.981Z,102560.36
2019-03-20T04:36:47.548Z,102556.00
2019-03-20T04:39:15.606Z,102559.30
2019-03-20T04:41:46.277Z,102564.95
2019-03-20T04:44:17.535Z,102569.15
2019-03-20T04:46:49.089Z,102570.74
2019-03-20T04:49:20.695Z,102571.11
2019-03-20T04:51:52.014Z,102568.73
2019-03-20T04:54:23.248Z,102570.92
2019-03-20T04:56:54.498Z,102576.20
2019-03-20T04:59:25.715Z,102579.53
2019-03-20T05:01:57.069Z,102576.80
2019-03-20T05:04:29.041Z,102582.94
2019-03-20T05:07:00.172Z,102585.50
2019-03-20T05:09:31.748Z,102598.82
2019-03-20T05:12:03.052Z,102599.94
2019-03-20T05:14:34.059Z,102600.81
2019-03-20T05:17:05.175Z,102602.06
2019-03-20T05:19:36.254Z,102600.42
2019-03-20T05:22:07.251Z,102601.52
2019-03-20T05:24:38.192Z,102606.78
2019-03-20T05:27:09.404Z,102608.98
2019-03-20T05:29:40.711Z,102603.00
2019-03-20T05:32:11.638Z,102601.61
2019-03-20T05:34:42.655Z,102595.63
2019-03-20T05:37:14.012Z,102597.45
2019-03-20T05:39:45.707Z,102605.34
2019-03-20T05:42:16.607Z,102606.27
2019-03-20T05:44:47.667Z,102607.02
2019-03-20T05:47:19.075Z,102611.98
2019-03-20T05:49:50.430Z,102615.52
2019-03-20T05:52:21.636Z,102617.95
2019-03-20T05:54:52.700Z,102619.63
2019-03-20T05:57:24.126Z,102620.36
2019-03-20T05:59:55.174Z,102623.52
2019-03-20T06:02:26.612Z,102623.91
2019-03-20T06:04:58.264Z,102627.02
2019-03-20T06:07:29.563Z,102625.97
2019-03-20T06:10:01.234Z,102619.19
2019-03-20T06:12:32.514Z,102626.14
2019-03-20T06:15:03.961Z,102629.66
2019-03-20T06:17:35.818Z,102639.53
2019-03-20T06:20:11.101Z,102636.97
2019-03-20T06:22:43.753Z,102651.25
2019-03-20T06:25:16.619Z,102653.28
2019-03-20T06:27:49.475Z,102653.30
2019-03-20T06:30:22.453Z,102660.45
2019-03-20T06:32:53.941Z,102653.89
2019-03-20T06:35:25.052Z,102659.02
2019-03-20T06:37:56.563Z,102654.46
2019-03-20T06:40:28.200Z,102661.03
2019-03-20T06:42:59.359Z,102666.00
2019-03-20T06:45:33.572Z,102666.00
2019-03-20T06:48:04.736Z,102670.21
2019-03-20T06:50:35.777Z,102659.94
2019-03-20T06:53:07.829Z,102665.78
2019-03-20T06:55:39.239Z,102662.44
2019-03-20T06:58:11.157Z,102667.37
2019-03-20T07:00:47.139Z,102668.42
2019-03-20T07:03:22.010Z,102668.42
2019-03-20T07:05:56.490Z,102672.56
2019-03-20T07:08:31.122Z,102672.56
2019-03-20T07:11:02.148Z,102677.37
2019-03-20T07:13:33.069Z,102677.37
2019-03-20T07:16:05.782Z,102664.83
2019-03-20T07:18:36.631Z,102680.74
2019-03-20T07:21:08.861Z,102682.33
2019-03-20T07:23:40.338Z,102659.52
2019-03-20T07:26:11.577Z,102659.52
2019-03-20T07:28:42.857Z,102682.17
2019-03-20T07:31:15.648Z,102681.17
2019-03-20T07:33:46.969Z,102688.79
2019-03-20T07:36:18.140Z,102685.73
2019-03-20T07:38:49.470Z,102691.16
2019-03-20T07:41:20.808Z,102690.33
2019-03-20T07:43:51.864Z,102688.36
2019-03-20T07:46:23.240Z,102693.73
2019-03-20T07:48:54.657Z,102691.74
2019-03-20T07:51:25.850Z,102690.51
2019-03-20T07:53:57.620Z,102697.34
2019-03-20T07:56:28.396Z,102694.86
2019-03-20T07:58:59.565Z,102696.48
2019-03-20T08:01:30.800Z,102693.22
2019-03-20T08:04:02.282Z,102705.91
2019-03-20T08:06:35.069Z,102699.04
2019-03-20T08:09:07.520Z,102705.77
2019-03-20T08:11:38.823Z,102707.50
2019-03-20T08:14:09.761Z,102705.06
2019-03-20T08:16:41.251Z,102707.77
2019-03-20T08:19:13.631Z,102705.83
2019-03-20T08:21:44.388Z,102702.29
2019-03-20T08:24:16.079Z,102706.27
2019-03-20T08:26:47.667Z,102714.77
2019-03-20T08:29:19.362Z,102716.23
2019-03-20T08:31:51.228Z,102705.60
2019-03-20T08:34:22.545Z,102708.35
2019-03-20T08:36:53.774Z,102713.53
2019-03-20T08:39:24.796Z,102723.36
2019-03-20T08:41:56.058Z,102717.03
2019-03-20T08:44:27.517Z,102722.44
2019-03-20T08:46:59.465Z,102716.59
2019-03-20T08:49:30.714Z,102718.11
2019-03-20T08:52:02.026Z,102718.94
2019-03-20T08:54:33.293Z,102722.81
2019-03-20T08:57:04.457Z,102715.78
2019-03-20T08:59:36.306Z,102716.99
2019-03-20T09:02:07.740Z,102715.21
2019-03-20T09:04:39.101Z,102716.83
2019-03-20T09:07:10.588Z,102723.29
2019-03-20T09:09:42.232Z,102724.59
2019-03-20T09:12:13.669Z,102714.75
2019-03-20T09:14:45.280Z,102718.55
2019-03-20T09:17:17.222Z,102728.27
2019-03-20T09:19:48.537Z,102730.34
2019-03-20T09:22:20.156Z,102718.84
2019-03-20T09:24:51.438Z,102726.42
2019-03-20T09:27:22.953Z,102721.94
2019-03-20T09:29:54.327Z,102725.33
2019-03-20T09:32:25.815Z,102718.69
2019-03-20T09:34:56.811Z,102724.84
2019-03-20T09:37:28.014Z,102725.20
2019-03-20T09:39:59.596Z,102726.15
2019-03-20T09:42:31.077Z,102718.88
2019-03-20T09:45:02.525Z,102712.20
2019-03-20T09:47:34.031Z,102710.01
2019-03-20T09:50:08.266Z,102716.33
2019-03-20T09:52:39.874Z,102703.86
2019-03-20T09:55:13.951Z,102709.03
2019-03-20T09:57:45.242Z,102704.55
2019-03-20T10:00:19.620Z,102703.34
2019-03-20T10:02:50.988Z,102704.37
2019-03-20T10:05:22.285Z,102696.37
2019-03-20T10:07:53.286Z,102699.23
2019-03-20T10:10:27.725Z,102690.95
2019-03-20T10:12:59.079Z,102692.91
2019-03-20T10:15:32.083Z,102695.11
2019-03-20T10:18:03.221Z,102702.13
2019-03-20T10:20:35.588Z,102696.17
2019-03-20T10:23:07.612Z,102701.75
2019-03-20T10:25:44.433Z,102696.56
2019-03-20T10:28:11.539Z,102701.89
2019-03-20T10:30:45.161Z,102696.56
2019-03-20T10:33:17.374Z,102698.25
2019-03-20T10:35:50.427Z,102692.64
2019-03-20T10:38:21.854Z,102695.73
2019-03-20T10:40:53.344Z,102687.09
2019-03-20T10:43:24.550Z,102690.43
2019-03-20T10:45:56.548Z,102685.18
2019-03-20T10:48:28.395Z,102684.36
2019-03-20T10:50:59.368Z,102686.82
2019-03-20T10:53:31.186Z,102681.37
2019-03-20T10:56:03.067Z,102675.91
2019-03-20T10:58:34.375Z,102693.25
2019-03-20T11:01:06.205Z,102687.09
2019-03-20T11:03:36.885Z,102682.27
2019-03-20T11:06:07.917Z,102680.72
2019-03-20T11:08:39.520Z,102674.84
2019-03-20T11:11:10.887Z,102668.39
2019-03-20T11:13:43.629Z,102683.69
2019-03-20T11:16:15.198Z,102675.86
2019-03-20T11:18:48.625Z,102678.78
2019-03-20T11:21:20.325Z,102686.36
2019-03-20T11:23:51.445Z,102676.12
2019-03-20T11:26:23.431Z,102658.92
2019-03-20T11:28:55.104Z,102658.20
2019-03-20T11:31:28.097Z,102648.25
2019-03-20T11:33:59.980Z,102642.33
2019-03-20T11:36:32.859Z,102646.86
2019-03-20T11:39:05.466Z,102646.86
2019-03-20T11:41:37.780Z,102648.56
2019-03-20T11:44:09.466Z,102651.57
2019-03-20T11:46:41.182Z,102659.08
2019-03-20T11:49:13.242Z,102648.00
2019-03-20T11:51:44.726Z,102649.61
2019-03-20T11:54:16.316Z,102645.62
2019-03-20T11:56:47.515Z,102658.03
2019-03-20T11:59:18.935Z,102653.24
2019-03-20T12:01:50.306Z,102644.09
2019-03-20T12:04:22.502Z,102645.94
2019-03-20T12:06:53.993Z,102643.39
2019-03-20T12:09:25.629Z,102633.19
2019-03-20T12:11:56.756Z,102637.80
2019-03-20T12:14:28.148Z,102635.05
2019-03-20T12:16:59.702Z,102637.96
2019-03-20T12:19:30.838Z,102624.61
2019-03-20T12:22:02.405Z,102620.36
2019-03-20T12:24:33.726Z,102624.83
2019-03-20T12:27:14.687Z,102612.84
2019-03-20T12:29:38.302Z,102613.27
2019-03-20T12:32:09.968Z,102611.66
2019-03-20T12:34:42.011Z,102611.20
2019-03-20T12:37:13.326Z,102616.78
2019-03-20T12:39:52.815Z,102620.08
2019-03-20T12:42:17.739Z,102608.45
2019-03-20T12:44:49.341Z,102610.43
2019-03-20T12:47:21.072Z,102610.06
2019-03-20T12:49:52.478Z,102610.09
2019-03-20T12:52:24.193Z,102602.78
2019-03-20T12:54:55.593Z,102590.88
2019-03-20T12:57:27.326Z,102602.31
2019-03-20T12:59:59.610Z,102600.88
2019-03-20T13:02:31.319Z,102609.23
2019-03-20T13:05:02.878Z,102598.50
2019-03-20T13:07:34.760Z,102588.46
2019-03-20T13:10:09.378Z,102590.00
2019-03-20T13:12:41.927Z,102590.38
2019-03-20T13:15:16.191Z,102590.33
2019-03-20T13:17:47.730Z,102581.77
2019-03-20T13:20:19.097Z,102584.52
2019-03-20T13:22:53.538Z,102583.34
2019-03-20T13:25:25.073Z,102580.96
2019-03-20T13:27:57.761Z,102582.67
2019-03-20T13:30:32.250Z,102575.55
2019-03-20T13:33:03.850Z,102566.36
2019-03-20T13:35:34.952Z,102574.66
2019-03-20T13:38:06.453Z,102575.92
2019-03-20T13:40:37.723Z,102565.15
2019-03-20T13:43:09.339Z,102568.11
2019-03-20T13:45:40.683Z,102545.16
2019-03-20T13:48:12.079Z,102554.12
2019-03-20T13:50:43.065Z,102553.00
2019-03-20T13:53:15.482Z,102546.16
2019-03-20T13:55:47.073Z,102541.48
2019-03-20T13:58:18.381Z,102536.88
2019-03-20T14:00:49.744Z,102543.05
2019-03-20T14:03:21.182Z,102550.02
2019-03-20T14:05:52.786Z,102540.65
2019-03-20T14:08:24.040Z,102539.52
2019-03-20T14:10:55.283Z,102541.75
2019-03-20T14:13:26.724Z,102542.47
2019-03-20T14:15:59.065Z,102543.50
2019-03-20T14:18:30.838Z,102541.80
2019-03-20T14:21:02.066Z,102540.12
2019-03-20T14:23:33.131Z,102539.84
2019-03-20T14:26:04.001Z,102538.45
2019-03-20T14:28:35.063Z,102531.39
2019-03-20T14:31:06.335Z,102531.30
2019-03-20T14:33:38.134Z,102531.84
2019-03-20T14:36:09.445Z,102523.02
2019-03-20T14:38:42.146Z,102538.28
2019-03-20T14:41:21.215Z,102526.80
2019-03-20T14:43:46.111Z,102524.28
2019-03-20T14:46:17.373Z,102534.99
2019-03-20T14:48:48.835Z,102531.61
2019-03-20T14:51:20.708Z,102531.44
2019-03-20T14:53:52.554Z,102530.08
2019-03-20T14:56:23.906Z,102531.08
2019-03-20T14:58:55.065Z,102533.05
2019-03-20T15:01:26.483Z,102523.97
2019-03-20T15:03:59.958Z,102531.03
2019-03-20T15:06:31.310Z,102536.45
2019-03-20T15:09:02.348Z,102527.83
2019-03-20T15:11:33.850Z,102533.69
2019-03-20T15:14:05.740Z,102537.15
2019-03-20T15:16:37.404Z,102542.52
2019-03-20T15:19:08.874Z,102540.34
2019-03-20T15:21:40.313Z,102541.34
2019-03-20T15:24:11.494Z,102546.28
2019-03-20T15:26:43.680Z,102542.77
2019-03-20T15:29:15.096Z,102547.02
2019-03-20T15:31:46.724Z,102545.58
2019-03-20T15:34:18.577Z,102546.23
2019-03-20T15:36:50.224Z,102544.56
2019-03-20T15:39:21.694Z,102542.02
2019-03-20T15:41:53.404Z,102538.50
2019-03-20T15:44:24.748Z,102545.71
2019-03-20T15:46:55.683Z,102535.40
2019-03-20T15:49:26.997Z,102525.84
2019-03-20T15:51:58.119Z,102530.47
2019-03-20T15:54:29.432Z,102515.40
2019-03-20T15:57:00.630Z,102507.56
2019-03-20T15:59:34.488Z,102499.41
2019-03-20T16:02:05.766Z,102494.30
2019-03-20T16:04:37.520Z,102493.31
2019-03-20T16:07:08.893Z,102492.36
2019-03-20T16:09:40.254Z,102487.86
2019-03-20T16:12:11.632Z,102488.09
2019-03-20T16:14:42.795Z,102482.02
2019-03-20T16:17:14.158Z,102482.09
2019-03-20T16:19:45.379Z,102484.75
2019-03-20T16:22:16.466Z,102488.97
2019-03-20T16:24:48.082Z,102494.23
2019-03-20T16:27:19.443Z,102495.25
2019-03-20T16:29:51.854Z,102491.69
2019-03-20T16:32:24.484Z,102481.77
2019-03-20T16:34:56.307Z,102492.53
2019-03-20T16:37:27.690Z,102491.73
2019-03-20T16:39:58.877Z,102499.72
2019-03-20T16:42:34.222Z,102506.44
2019-03-20T16:45:08.720Z,102520.44
2019-03-20T16:47:40.117Z,102510.83
2019-03-20T16:50:15.135Z,102509.31
2019-03-20T16:52:46.986Z,102520.14
2019-03-20T16:55:18.950Z,102523.62
2019-03-20T16:57:50.190Z,102533.77
2019-03-20T17:00:22.846Z,102541.36
2019-03-20T17:02:53.897Z,102536.31
2019-03-20T17:05:25.823Z,102543.67
2019-03-20T17:07:57.376Z,102549.38
2019-03-20T17:10:30.016Z,102551.23
2019-03-20T17:13:01.881Z,102547.34
2019-03-20T17:15:35.543Z,102550.10
2019-03-20T17:18:31.271Z,102553.81
2019-03-20T17:21:04.094Z,102566.63
2019-03-20T17:23:35.597Z,102567.03
2019-03-20T17:26:07.325Z,102573.72
2019-03-20T17:28:38.762Z,102579.83
2019-03-20T17:31:11.682Z,102584.92
2019-03-20T17:33:42.878Z,102588.60
2019-03-20T17:36:14.415Z,102590.16
2019-03-20T17:38:45.738Z,102592.50
2019-03-20T17:41:17.220Z,102594.08
2019-03-20T17:56:35.563Z,102588.64
2019-03-20T18:12:09.125Z,102573.06
2019-03-20T18:14:40.447Z,102565.64
2019-03-20T18:17:11.730Z,102568.77
2019-03-20T18:19:42.733Z,102576.98
2019-03-20T18:22:14.156Z,102571.66
2019-03-20T18:24:45.111Z,102579.44
2019-03-20T18:27:16.632Z,102578.64
2019-03-20T18:29:50.827Z,102584.50
2019-03-20T18:32:22.399Z,102583.09
2019-03-20T18:34:53.548Z,102581.11
2019-03-20T18:37:24.780Z,102583.71
2019-03-20T18:39:55.632Z,102583.58
2019-03-20T18:42:26.717Z,102579.69
2019-03-20T18:44:58.433Z,102577.88
2019-03-20T18:47:29.919Z,102579.19
2019-03-20T18:50:05.449Z,102580.20
2019-03-20T18:52:46.670Z,102581.38
2019-03-20T18:58:27.440Z,102584.38
2019-03-20T19:01:04.131Z,102582.05
2019-03-20T19:07:22.472Z,102583.72
2019-03-20T19:09:57.513Z,102581.77
2019-03-20T19:19:21.373Z,102571.50
2019-03-20T19:21:54.279Z,102572.27
2019-03-20T19:24:26.086Z,102569.02
2019-03-20T19:27:02.775Z,102577.34
2019-03-20T19:29:39.645Z,102575.78
2019-03-20T19:32:13.518Z,102579.95
2019-03-20T19:41:16.582Z,102572.26
2019-03-20T20:22:09.970Z,102574.98
2019-03-20T20:24:50.404Z,102577.98
2019-03-20T20:27:23.095Z,102584.09
2019-03-20T20:29:56.560Z,102584.20
2019-03-20T23:02:29.807Z,102608.17
2019-03-20T23:05:03.416Z,102612.20
2019-03-20T23:07:34.796Z,102601.55
2019-03-20T23:10:09.843Z,102612.05
2019-03-20T23:12:40.793Z,102606.59
2019-03-20T23:15:15.005Z,102601.28
2019-03-20T23:17:46.393Z,102600.64
2019-03-20T23:20:21.332Z,102612.07
2019-03-20T23:22:53.649Z,102604.63
2019-03-20T23:25:25.689Z,102599.06
2019-03-20T23:27:57.082Z,102596.34
2019-03-20T23:30:30.087Z,102593.99
2019-03-20T23:33:01.469Z,102595.30
2019-03-20T23:35:32.772Z,102603.73
2019-03-20T23:38:04.067Z,102607.36
2019-03-20T23:40:35.373Z,102606.34
2019-03-20T23:43:08.876Z,102608.40
2019-03-20T23:45:40.038Z,102616.45
2019-03-20T23:48:14.709Z,102615.31
2019-03-20T23:50:46.387Z,102606.06
2019-03-20T23:53:18.755Z,102612.83
2019-03-20T23:55:49.734Z,102606.86
2019-03-20T23:58:21.908Z,102600.36
